Time;durP1;ratioP1;P1;durP2;ratioP2;P2;SDS_P1;SDS_P2;PMS_P1;PMS_P2;Temp;Humidity;BMP_temperature;BMP_pressure;BME280_temperature;BME280_humidity;BME280_pressure;Samples;Min_cycle;Max_cycle;Signal;HPM_P1;HPM_P2
2024/03/22 00:02:00;;;;;;;10.73;6.70;;;;;;;9.17;100.00;101191.94;5110550;29;20098;-73
2024/03/22 00:04:31;;;;;;;12.50;6.47;;;;;;;9.20;100.00;101191.88;5120997;28;20074;-74
2024/03/22 00:07:01;;;;;;;10.45;6.38;;;;;;;9.29;100.00;101189.94;5109128;28;20164;-72
2024/03/22 00:09:31;;;;;;;10.40;6.70;;;;;;;9.39;100.00;101186.28;5107776;28;20602;-74
2024/03/22 00:12:02;;;;;;;12.80;6.20;;;;;;;9.29;100.00;101183.88;5127771;28;20036;-73
2024/03/22 00:14:33;;;;;;;15.95;6.80;;;;;;;9.25;100.00;101185.69;5133106;23;20125;-70
2024/03/22 00:17:04;;;;;;;11.20;6.68;;;;;;;9.28;100.00;101182.19;5117728;28;20442;-71
2024/03/22 00:19:34;;;;;;;12.23;6.70;;;;;;;9.32;100.00;101176.00;5124848;28;20031;-71
2024/03/22 00:22:05;;;;;;;16.05;6.38;;;;;;;9.33;100.00;101167.28;5124411;28;20382;-72
2024/03/22 00:24:35;;;;;;;11.60;6.43;;;;;;;9.32;100.00;101170.78;5131208;28;20045;-72
2024/03/22 00:27:05;;;;;;;11.38;5.95;;;;;;;9.28;100.00;101169.13;5129049;28;20031;-72
2024/03/22 00:29:36;;;;;;;11.82;6.00;;;;;;;9.26;100.00;101168.28;5123311;28;20513;-70
2024/03/22 00:32:07;;;;;;;12.68;6.53;;;;;;;9.21;100.00;101168.41;5119537;28;20263;-71
2024/03/22 00:34:37;;;;;;;13.48;6.25;;;;;;;9.19;100.00;101169.31;5125849;28;20035;-73
2024/03/22 00:37:08;;;;;;;10.43;6.38;;;;;;;9.15;100.00;101159.84;5127728;28;20042;-73
2024/03/22 00:39:38;;;;;;;10.38;6.80;;;;;;;9.23;100.00;101163.13;5128727;28;20054;-72
2024/03/22 00:42:08;;;;;;;11.05;6.72;;;;;;;9.27;100.00;101155.22;5128877;28;20027;-71
2024/03/22 00:44:39;;;;;;;13.90;7.20;;;;;;;9.20;100.00;101156.25;5134884;28;20034;-71
2024/03/22 00:47:09;;;;;;;15.02;7.95;;;;;;;9.13;100.00;101156.41;5132826;28;20459;-71
2024/03/22 00:49:39;;;;;;;16.38;8.02;;;;;;;9.15;100.00;101150.25;5128269;28;20039;-71
2024/03/22 00:52:09;;;;;;;13.90;7.53;;;;;;;9.21;100.00;101150.13;5129147;28;20475;-73
2024/03/22 00:54:40;;;;;;;15.75;8.32;;;;;;;9.16;100.00;101144.13;5129346;28;20042;-72
2024/03/22 00:57:10;;;;;;;14.80;8.05;;;;;;;9.16;100.00;101153.72;5127772;28;20106;-72
2024/03/22 00:59:41;;;;;;;16.52;8.55;;;;;;;9.17;100.00;101150.22;5132540;28;20027;-71
2024/03/22 01:02:11;;;;;;;14.93;8.30;;;;;;;9.19;100.00;101146.72;5122667;28;20070;-72
2024/03/22 01:04:41;;;;;;;20.13;10.43;;;;;;;9.27;100.00;101133.47;5131944;28;20046;-73
2024/03/22 01:07:12;;;;;;;16.30;10.05;;;;;;;9.37;100.00;101132.41;5130504;28;20043;-73
2024/03/22 01:09:44;;;;;;;23.42;12.38;;;;;;;9.37;100.00;101133.28;5125119;28;20442;-73
2024/03/22 01:12:14;;;;;;;26.00;13.63;;;;;;;9.46;100.00;101130.44;5130487;28;20041;-73
2024/03/22 01:14:44;;;;;;;27.33;13.95;;;;;;;9.57;100.00;101111.94;5133183;28;20027;-71
2024/03/22 01:17:14;;;;;;;27.58;14.82;;;;;;;9.67;100.00;101105.63;5132135;28;20054;-71
2024/03/22 01:19:45;;;;;;;31.45;15.85;;;;;;;9.65;100.00;101096.97;5133253;28;20027;-73
2024/03/22 01:22:16;;;;;;;34.90;16.65;;;;;;;9.73;100.00;101106.34;5126036;28;20069;-71
2024/03/22 01:24:47;;;;;;;32.53;17.80;;;;;;;9.78;100.00;101098.38;5125209;28;20121;-72
2024/03/22 01:27:17;;;;;;;36.35;17.70;;;;;;;9.79;100.00;101095.75;5130487;28;20022;-71
2024/03/22 01:29:48;;;;;;;34.13;16.95;;;;;;;9.88;100.00;101094.66;5127007;28;20027;-71
2024/03/22 01:32:18;;;;;;;37.05;18.15;;;;;;;9.91;100.00;101089.38;5133329;28;20383;-72
2024/03/22 01:34:48;;;;;;;35.92;19.05;;;;;;;10.03;100.00;101084.72;5130760;28;20042;-70
2024/03/22 01:37:19;;;;;;;37.15;18.90;;;;;;;10.01;100.00;101088.25;5127714;28;20026;-70
2024/03/22 01:39:49;;;;;;;33.88;18.02;;;;;;;10.03;100.00;101091.72;5114383;28;20035;-69
2024/03/22 01:42:19;;;;;;;32.88;18.67;;;;;;;10.11;100.00;101081.91;5131512;28;20118;-72
2024/03/22 01:44:50;;;;;;;31.67;18.50;;;;;;;10.19;100.00;101080.81;5129075;28;20477;-70
2024/03/22 01:47:20;;;;;;;33.65;19.23;;;;;;;10.13;100.00;101074.94;5130411;28;20027;-71
2024/03/22 01:49:53;;;;;;;40.97;19.48;;;;;;;10.13;100.00;101069.72;5135027;28;20045;-71
2024/03/22 01:52:24;;;;;;;37.53;19.65;;;;;;;10.18;100.00;101057.38;5132164;28;20528;-72
2024/03/22 01:54:54;;;;;;;39.28;19.70;;;;;;;10.17;100.00;101060.88;5137293;28;20035;-70
2024/03/22 01:57:25;;;;;;;39.15;19.77;;;;;;;10.23;100.00;101068.56;5125358;28;20027;-71
2024/03/22 01:59:56;;;;;;;34.75;19.38;;;;;;;10.26;100.00;101081.53;5131183;28;20283;-71
2024/03/22 02:02:27;;;;;;;39.05;19.15;;;;;;;10.25;100.00;101074.59;5128270;28;20042;-73
2024/03/22 02:04:57;;;;;;;37.90;19.85;;;;;;;10.27;100.00;101057.13;5130328;28;20034;-72
2024/03/22 02:07:29;;;;;;;39.08;20.50;;;;;;;10.30;100.00;101067.47;5133529;28;20035;-72
2024/03/22 02:10:00;;;;;;;34.13;18.95;;;;;;;10.39;100.00;101051.56;5127175;28;20043;-71
2024/03/22 02:12:30;;;;;;;36.40;19.85;;;;;;;10.46;100.00;101060.94;5134017;28;20117;-71
2024/03/22 02:15:02;;;;;;;40.60;20.88;;;;;;;10.51;100.00;101046.84;5131535;28;20562;-71
2024/03/22 02:17:32;;;;;;;37.33;19.77;;;;;;;10.48;100.00;101036.50;5128084;28;20053;-70
2024/03/22 02:20:04;;;;;;;36.08;19.77;;;;;;;10.42;100.00;101039.28;5131183;28;20035;-72
2024/03/22 02:22:35;;;;;;;36.63;19.58;;;;;;;10.46;100.00;101033.06;5137665;28;20286;-72
2024/03/22 02:25:07;;;;;;;39.88;19.73;;;;;;;10.54;99.93;101028.47;5131459;28;20085;-71
2024/03/22 02:27:38;;;;;;;33.42;17.98;;;;;;;10.52;99.93;101026.81;5124286;28;20027;-69
2024/03/22 02:30:09;;;;;;;36.53;19.05;;;;;;;10.54;99.92;101020.63;5125916;28;20059;-71
2024/03/22 02:32:40;;;;;;;32.70;18.45;;;;;;;10.50;99.74;101023.41;5131480;28;20026;-72
2024/03/22 02:35:10;;;;;;;34.63;18.70;;;;;;;10.68;98.63;101017.66;5130210;28;20075;-68
2024/03/22 02:37:41;;;;;;;30.02;17.70;;;;;;;10.62;98.52;101013.44;5131359;28;20469;-71
2024/03/22 02:40:11;;;;;;;32.42;18.83;;;;;;;10.76;97.37;101010.44;5129937;28;20042;-70
2024/03/22 02:42:42;;;;;;;35.80;18.17;;;;;;;10.69;97.28;101008.91;5128902;28;20046;-71
2024/03/22 02:45:12;;;;;;;34.67;18.70;;;;;;;10.68;98.01;100996.72;5130546;28;20351;-71
2024/03/22 02:47:42;;;;;;;35.38;18.77;;;;;;;10.68;97.86;100986.28;5131962;28;20033;-70
2024/03/22 02:50:13;;;;;;;32.70;17.77;;;;;;;10.63;99.06;100990.75;5132596;28;20030;-72
2024/03/22 02:52:43;;;;;;;32.35;18.50;;;;;;;10.60;99.61;100978.66;5134413;28;20038;-72
2024/03/22 02:55:13;;;;;;;37.40;18.90;;;;;;;10.59;99.16;100973.47;5128270;28;20096;-71
2024/03/22 02:57:44;;;;;;;31.02;18.08;;;;;;;10.69;99.33;100978.38;5132730;28;20034;-70
2024/03/22 03:00:14;;;;;;;33.10;18.25;;;;;;;10.70;99.68;100955.72;5127981;28;20109;-71
2024/03/22 03:02:48;;;;;;;29.58;17.08;;;;;;;10.63;99.00;100957.66;5133095;28;20055;-71
2024/03/22 03:05:18;;;;;;;33.13;17.65;;;;;;;10.67;99.68;100955.81;5134332;28;20030;-72
2024/03/22 03:07:48;;;;;;;31.33;17.38;;;;;;;10.58;98.93;100948.22;5135650;28;20313;-71
2024/03/22 03:10:19;;;;;;;31.83;17.13;;;;;;;10.61;99.48;100950.75;5135109;28;20117;-69
2024/03/22 03:12:49;;;;;;;29.38;17.30;;;;;;;10.55;99.83;100953.56;5132964;28;20046;-71
2024/03/22 03:15:19;;;;;;;30.60;17.15;;;;;;;10.59;98.79;100952.56;5130589;28;20058;-72
2024/03/22 03:17:51;;;;;;;34.13;17.23;;;;;;;10.55;98.94;100950.94;5133356;28;20023;-70
2024/03/22 03:20:21;;;;;;;28.85;17.27;;;;;;;10.52;98.99;100948.44;5135611;28;20034;-72
2024/03/22 03:22:52;;;;;;;29.80;16.00;;;;;;;10.56;98.87;100939.59;5119072;28;20046;-69
2024/03/22 03:25:22;;;;;;;33.10;17.20;;;;;;;10.58;98.84;100943.00;5127204;28;20050;-71
2024/03/22 03:27:52;;;;;;;33.70;17.88;;;;;;;10.55;99.29;100938.72;5131575;28;20053;-70
2024/03/22 03:30:23;;;;;;;37.90;17.67;;;;;;;10.50;99.72;100940.63;5134196;28;20035;-71
2024/03/22 03:32:53;;;;;;;30.67;17.27;;;;;;;10.62;98.59;100936.78;5128133;28;20442;-71
2024/03/22 03:35:23;;;;;;;31.38;17.00;;;;;;;10.63;98.73;100938.50;5130903;28;20039;-72
2024/03/22 03:37:53;;;;;;;28.08;16.40;;;;;;;10.63;99.85;100928.91;5129882;28;20044;-70
2024/03/22 03:40:24;;;;;;;36.65;17.83;;;;;;;10.48;99.40;100923.28;5127523;28;20039;-73
2024/03/22 03:42:54;;;;;;;31.88;17.13;;;;;;;10.63;99.12;100907.13;5122311;28;20063;-72
2024/03/22 03:45:25;;;;;;;35.50;18.00;;;;;;;10.49;99.83;100896.25;5128057;28;20028;-71
2024/03/22 03:47:55;;;;;;;33.03;18.17;;;;;;;10.53;99.99;100897.88;5123783;28;20055;-70
2024/03/22 03:50:25;;;;;;;34.47;17.52;;;;;;;10.51;99.26;100892.69;5121841;28;20355;-71
2024/03/22 03:52:56;;;;;;;35.05;17.88;;;;;;;10.46;99.31;100886.75;5122294;28;20132;-71
2024/03/22 03:55:26;;;;;;;35.08;18.85;;;;;;;10.44;100.00;100885.94;5120718;28;20413;-71
2024/03/22 03:57:56;;;;;;;32.75;17.55;;;;;;;10.53;99.78;100882.19;5123935;28;20027;-72
2024/03/22 04:00:27;;;;;;;33.53;17.92;;;;;;;10.53;99.43;100884.81;5125001;28;20074;-73
2024/03/22 04:02:57;;;;;;;35.92;18.48;;;;;;;10.52;99.78;100877.88;5121394;28;20037;-73
2024/03/22 04:05:27;;;;;;;34.50;17.77;;;;;;;10.55;100.00;100878.59;5127468;28;20118;-71
2024/03/22 04:07:57;;;;;;;34.25;18.38;;;;;;;10.62;99.40;100871.44;5121244;28;20035;-73
2024/03/22 04:10:28;;;;;;;32.15;17.77;;;;;;;10.64;98.94;100864.41;5121808;28;20178;-71
2024/03/22 04:12:58;;;;;;;37.55;18.00;;;;;;;10.49;99.35;100864.91;5131201;28;20038;-71
2024/03/22 04:15:28;;;;;;;32.90;17.27;;;;;;;10.41;100.00;100862.53;5121278;28;20475;-73
2024/03/22 04:17:59;;;;;;;32.78;17.33;;;;;;;10.46;99.88;100864.97;5119588;28;20148;-71
2024/03/22 04:20:29;;;;;;;33.30;16.80;;;;;;;10.55;99.74;100856.88;5125508;28;20033;-72
2024/03/22 04:22:59;;;;;;;32.85;16.25;;;;;;;10.63;98.30;100847.88;5120625;28;20030;-72
2024/03/22 04:25:30;;;;;;;32.25;17.05;;;;;;;10.60;98.60;100857.56;5128561;28;20117;-71
2024/03/22 04:28:00;;;;;;;31.48;16.23;;;;;;;10.55;98.07;100864.69;5120033;28;20518;-72
2024/03/22 04:30:30;;;;;;;35.33;16.35;;;;;;;10.65;98.13;100850.47;5124262;28;20154;-71
2024/03/22 04:33:00;;;;;;;32.85;16.30;;;;;;;10.62;97.51;100854.00;5122440;28;20359;-71
2024/03/22 04:35:31;;;;;;;34.40;15.80;;;;;;;10.63;97.81;100847.88;5126663;28;20026;-71
2024/03/22 04:38:01;;;;;;;32.50;15.90;;;;;;;10.69;97.62;100846.84;5119144;28;20026;-73
2024/03/22 04:40:31;;;;;;;30.63;15.77;;;;;;;10.65;97.39;100842.63;5125273;28;20610;-72
2024/03/22 04:43:01;;;;;;;31.13;15.27;;;;;;;10.62;97.13;100834.84;5126421;28;20034;-73
2024/03/22 04:45:32;;;;;;;30.00;15.25;;;;;;;10.69;96.74;100832.00;5124825;28;20521;-72
2024/03/22 04:48:04;;;;;;;30.38;16.27;;;;;;;10.67;96.86;100838.19;5119441;28;20388;-72
2024/03/22 04:50:35;;;;;;;33.97;16.25;;;;;;;10.69;97.12;100836.38;5123718;28;20498;-72
2024/03/22 04:53:05;;;;;;;34.97;16.40;;;;;;;10.64;97.16;100822.59;5118338;28;20077;-72
2024/03/22 04:55:35;;;;;;;29.30;15.48;;;;;;;10.62;96.84;100821.78;5123612;28;20054;-72
2024/03/22 04:58:06;;;;;;;29.52;15.63;;;;;;;10.57;97.92;100827.19;5120048;28;20114;-71
2024/03/22 05:00:36;;;;;;;30.27;14.80;;;;;;;10.58;97.47;100821.03;5124437;28;20039;-72
2024/03/22 05:03:06;;;;;;;32.65;15.40;;;;;;;10.61;97.17;100810.47;5123429;28;20058;-72
2024/03/22 05:05:37;;;;;;;30.55;15.23;;;;;;;10.57;99.20;100808.00;5124996;28;20215;-71
2024/03/22 05:08:09;;;;;;;32.80;16.05;;;;;;;10.58;97.92;100804.50;5124188;28;20038;-72
2024/03/22 05:10:39;;;;;;;39.83;15.50;;;;;;;10.66;98.30;100799.88;5128488;28;20168;-71
2024/03/22 05:13:09;;;;;;;30.77;14.95;;;;;;;10.62;97.18;100798.25;5125302;28;20027;-72
2024/03/22 05:15:40;;;;;;;26.70;14.40;;;;;;;10.62;97.90;100800.88;5120139;28;20029;-73
2024/03/22 05:18:10;;;;;;;28.45;14.88;;;;;;;10.61;99.02;100801.78;5124343;28;20039;-73
2024/03/22 05:20:40;;;;;;;33.33;15.02;;;;;;;10.67;98.45;100801.59;5127576;28;20039;-70
2024/03/22 05:23:11;;;;;;;32.92;15.13;;;;;;;10.69;97.15;100790.16;5129056;28;20035;-70
2024/03/22 05:25:42;;;;;;;34.20;15.98;;;;;;;10.80;97.39;100788.06;5130382;28;20253;-70
2024/03/22 05:28:12;;;;;;;31.73;15.57;;;;;;;10.82;97.04;100786.25;5128461;28;20189;-72
2024/03/22 05:30:42;;;;;;;33.00;15.73;;;;;;;10.80;97.17;100788.06;5131981;28;20117;-71
2024/03/22 05:33:13;;;;;;;31.23;15.85;;;;;;;10.83;96.83;100776.66;5128653;28;20421;-72
2024/03/22 05:35:43;;;;;;;31.75;15.35;;;;;;;10.86;97.00;100771.31;5127766;28;20066;-71
2024/03/22 05:38:13;;;;;;;31.58;15.23;;;;;;;10.85;97.64;100774.84;5124371;28;20075;-71
2024/03/22 05:40:47;;;;;;;30.63;15.35;;;;;;;10.85;97.29;100774.84;5128032;28;20030;-72
2024/03/22 05:43:17;;;;;;;33.03;15.43;;;;;;;10.85;98.23;100762.63;5123856;28;20027;-71
2024/03/22 05:45:48;;;;;;;30.63;15.48;;;;;;;10.94;97.06;100769.28;5126297;28;20085;-72
2024/03/22 05:48:18;;;;;;;34.47;16.50;;;;;;;10.99;98.11;100763.00;5122877;28;20035;-71
2024/03/22 05:50:48;;;;;;;31.88;16.35;;;;;;;11.02;97.16;100774.22;5133037;28;20031;-71
2024/03/22 05:53:19;;;;;;;33.53;16.23;;;;;;;11.02;96.19;100771.63;5124612;28;20034;-72
2024/03/22 05:55:49;;;;;;;32.25;15.95;;;;;;;11.07;96.94;100772.31;5127740;28;20070;-71
2024/03/22 05:58:19;;;;;;;34.85;16.10;;;;;;;11.05;97.29;100771.50;5122549;28;20118;-71
2024/03/22 06:00:50;;;;;;;36.67;16.38;;;;;;;11.12;98.05;100770.38;5127147;28;20034;-71
2024/03/22 06:03:20;;;;;;;34.25;16.98;;;;;;;11.18;97.35;100772.78;5127657;28;20402;-72
2024/03/22 06:05:55;;;;;;;33.20;16.40;;;;;;;11.26;97.60;100769.91;5133732;28;20078;-71
2024/03/22 06:08:28;;;;;;;33.97;15.85;;;;;;;11.34;97.71;100771.34;5124369;28;20031;-72
2024/03/22 06:10:58;;;;;;;33.13;16.17;;;;;;;11.38;97.47;100767.72;5130695;28;20033;-71
2024/03/22 06:16:19;;;;;;;36.60;16.50;;;;;;;11.38;97.60;100753.75;5124241;28;20078;-75
2024/03/22 06:18:49;;;;;;;34.95;16.33;;;;;;;11.49;96.21;100742.00;5122435;28;20436;-77
2024/03/22 06:21:21;;;;;;;35.08;17.40;;;;;;;11.42;97.06;100742.28;5121791;28;20106;-75
2024/03/22 06:23:52;;;;;;;35.42;17.33;;;;;;;11.46;97.29;100739.47;5132372;28;20391;-74
2024/03/22 06:26:23;;;;;;;36.05;16.70;;;;;;;11.48;97.56;100742.91;5134523;28;20035;-75
2024/03/22 06:28:53;;;;;;;37.00;17.15;;;;;;;11.46;97.50;100741.25;5129107;28;20019;-76
2024/03/22 06:31:23;;;;;;;36.72;17.77;;;;;;;11.47;97.76;100730.72;5129588;28;20030;-77
2024/03/22 06:33:54;;;;;;;33.75;17.17;;;;;;;11.51;97.35;100736.72;5132689;28;20617;-74
2024/03/22 06:36:24;;;;;;;38.60;17.73;;;;;;;11.57;97.86;100726.91;5129586;28;20030;-73
2024/03/22 06:38:54;;;;;;;36.53;18.65;;;;;;;11.58;96.67;100722.53;5143681;28;20050;-74
2024/03/22 06:41:28;;;;;;;40.58;18.10;;;;;;;11.67;96.89;100719.56;5134725;28;20039;-75
2024/03/22 06:43:58;;;;;;;38.85;18.23;;;;;;;11.68;96.51;100711.66;5130810;28;20379;-72
2024/03/22 06:46:29;;;;;;;33.90;16.92;;;;;;;11.61;95.74;100712.78;5132388;28;20313;-74
2024/03/22 06:48:59;;;;;;;34.55;17.10;;;;;;;11.67;96.59;100723.03;5131399;28;20455;-73
2024/03/22 06:51:29;;;;;;;33.25;15.82;;;;;;;11.73;96.08;100712.31;5134074;28;20474;-74
2024/03/22 06:53:59;;;;;;;32.65;16.45;;;;;;;11.73;96.08;100708.84;5134903;28;20074;-73
2024/03/22 06:56:30;;;;;;;31.48;16.05;;;;;;;11.84;94.85;100712.78;5125185;28;20034;-77
2024/03/22 06:59:00;;;;;;;37.42;16.63;;;;;;;11.94;94.50;100708.03;5128551;28;20119;-75
2024/03/22 07:01:30;;;;;;;29.65;14.90;;;;;;;12.01;94.65;100705.13;5117320;28;20094;-74
2024/03/22 07:04:01;;;;;;;32.03;16.00;;;;;;;12.05;94.57;100711.06;5066362;28;20064;-74
2024/03/22 07:06:31;;;;;;;30.48;15.45;;;;;;;12.06;94.62;100700.53;5071663;28;20038;-73
2024/03/22 07:09:02;;;;;;;32.55;15.05;;;;;;;11.93;94.72;100707.16;5082286;28;20032;-74
2024/03/22 07:11:32;;;;;;;32.35;14.93;;;;;;;11.92;94.74;100687.13;5071493;28;20039;-73
2024/03/22 07:14:03;;;;;;;30.55;14.10;;;;;;;12.10;93.59;100694.25;5070619;28;20415;-73
2024/03/22 07:16:33;;;;;;;36.22;16.02;;;;;;;12.04;93.52;100697.13;5069534;28;20423;-74
2024/03/22 07:19:03;;;;;;;27.10;14.68;;;;;;;12.08;92.68;100703.97;5068508;28;20035;-74
2024/03/22 07:21:34;;;;;;;31.83;14.68;;;;;;;12.06;94.02;100695.31;5066473;28;20039;-73
2024/03/22 07:24:04;;;;;;;30.05;15.23;;;;;;;12.13;93.20;100685.44;5110530;28;20062;-75
2024/03/22 07:26:34;;;;;;;31.00;15.35;;;;;;;12.00;93.47;100690.31;5129965;28;20023;-74
2024/03/22 07:29:05;;;;;;;32.38;14.77;;;;;;;12.15;94.20;100684.44;5125522;28;20398;-74
2024/03/22 07:31:35;;;;;;;28.80;14.27;;;;;;;12.27;93.40;100683.97;5136385;28;20035;-74
2024/03/22 07:34:05;;;;;;;31.17;14.35;;;;;;;12.23;93.40;100687.63;5123952;28;20038;-74
2024/03/22 07:36:39;;;;;;;33.85;14.65;;;;;;;12.19;93.25;100683.44;5123178;28;20212;-73
2024/03/22 07:39:09;;;;;;;29.13;13.98;;;;;;;12.17;93.72;100680.03;5127187;28;20038;-74
2024/03/22 07:41:40;;;;;;;31.00;14.25;;;;;;;12.33;93.34;100677.63;5124746;28;20495;-72
2024/03/22 07:44:11;;;;;;;27.70;13.90;;;;;;;12.33;93.67;100667.97;5126973;28;20058;-74
2024/03/22 07:46:41;;;;;;;30.88;15.15;;;;;;;12.35;93.71;100668.78;5104879;28;21828;-73
2024/03/22 07:49:14;;;;;;;28.58;14.75;;;;;;;12.36;93.29;100661.75;5068997;28;21206;-73
2024/03/22 07:51:44;;;;;;;29.85;14.05;;;;;;;12.63;93.61;100650.13;5067867;28;20048;-72
2024/03/22 07:54:15;;;;;;;29.63;15.10;;;;;;;12.80;91.72;100651.09;5069281;28;20085;-74
2024/03/22 07:56:45;;;;;;;30.05;14.20;;;;;;;12.87;92.62;100644.69;5069373;28;20048;-73
2024/03/22 07:59:15;;;;;;;31.05;14.27;;;;;;;12.78;91.12;100636.38;5070323;28;20036;-73
2024/03/22 08:01:46;;;;;;;28.25;13.50;;;;;;;12.93;90.71;100642.66;5068631;28;20043;-73
2024/03/22 08:04:17;;;;;;;27.83;14.25;;;;;;;13.18;90.53;100629.28;5066455;28;20097;-73
2024/03/22 08:06:47;;;;;;;30.50;14.70;;;;;;;13.03;89.75;100630.00;5066615;28;20078;-74
2024/03/22 08:09:18;;;;;;;29.00;14.18;;;;;;;13.25;88.68;100635.97;5069645;28;20689;-74
2024/03/22 08:11:48;;;;;;;27.90;13.65;;;;;;;13.38;89.39;100627.47;5074406;28;20039;-73
2024/03/22 08:14:18;;;;;;;29.75;13.65;;;;;;;13.27;88.96;100628.88;5073333;28;20151;-73
2024/03/22 08:16:49;;;;;;;28.13;13.55;;;;;;;13.25;88.08;100634.19;5088048;28;20471;-73
2024/03/22 08:19:19;;;;;;;26.30;12.98;;;;;;;13.25;89.59;100636.81;5070977;28;20053;-75
2024/03/22 08:21:49;;;;;;;27.88;13.43;;;;;;;13.24;89.06;100635.13;5080437;28;21159;-73
2024/03/22 08:24:20;;;;;;;26.50;13.18;;;;;;;13.17;89.44;100641.56;5071301;28;20035;-74
2024/03/22 08:26:50;;;;;;;28.27;13.82;;;;;;;13.27;88.94;100636.75;5072400;28;20035;-74
2024/03/22 08:29:20;;;;;;;25.52;12.73;;;;;;;13.30;89.55;100641.88;5069730;28;20031;-74
2024/03/22 08:31:51;;;;;;;27.05;13.32;;;;;;;13.39;89.34;100636.22;5069043;28;20039;-73
2024/03/22 08:34:21;;;;;;;26.83;13.68;;;;;;;13.42;88.75;100638.69;5071953;28;20731;-72
2024/03/22 08:36:52;;;;;;;25.80;13.35;;;;;;;13.49;88.77;100624.34;5071659;28;20039;-73
2024/03/22 08:39:22;;;;;;;27.05;12.77;;;;;;;13.49;87.46;100625.22;5072252;28;20043;-74
2024/03/22 08:41:52;;;;;;;27.33;12.88;;;;;;;13.51;87.72;100625.13;5068955;28;20062;-73
2024/03/22 08:44:23;;;;;;;23.50;12.15;;;;;;;13.54;87.90;100633.72;5072175;28;20031;-74
2024/03/22 08:46:53;;;;;;;30.67;12.32;;;;;;;13.57;87.15;100633.56;5116472;28;20046;-75
2024/03/22 08:49:23;;;;;;;26.17;12.23;;;;;;;13.68;87.48;100638.31;5131529;28;20057;-76
2024/03/22 08:51:53;;;;;;;27.70;12.70;;;;;;;13.53;86.59;100639.88;5126742;28;20033;-75
2024/03/22 08:54:24;;;;;;;26.48;11.98;;;;;;;13.66;86.88;100642.78;5134371;28;20038;-76
2024/03/22 08:56:54;;;;;;;26.77;13.32;;;;;;;13.60;86.70;100628.16;5123200;28;20078;-76
2024/03/22 08:59:25;;;;;;;28.98;13.02;;;;;;;13.57;86.50;100628.31;5122278;28;20082;-74
2024/03/22 09:01:55;;;;;;;29.23;12.95;;;;;;;13.58;86.27;100621.31;5126430;28;20206;-74
2024/03/22 09:04:25;;;;;;;30.00;13.20;;;;;;;13.58;85.46;100623.94;5133955;28;20214;-75
2024/03/22 09:06:56;;;;;;;27.08;12.90;;;;;;;13.63;87.13;100619.31;5130216;28;20038;-74
2024/03/22 09:09:26;;;;;;;28.13;13.35;;;;;;;13.63;86.54;100611.41;5126177;28;20031;-75
2024/03/22 09:11:57;;;;;;;29.33;13.52;;;;;;;13.59;86.49;100612.50;5133554;28;20486;-73
2024/03/22 09:14:27;;;;;;;26.50;12.63;;;;;;;13.60;86.99;100611.56;5127979;28;20085;-75
2024/03/22 09:16:57;;;;;;;24.15;12.45;;;;;;;13.67;87.86;100602.47;5132577;28;20023;-73
2024/03/22 09:19:27;;;;;;;24.35;11.88;;;;;;;13.79;86.95;100602.75;5131103;28;20117;-76
2024/03/22 09:21:58;;;;;;;32.05;13.57;;;;;;;13.83;87.13;100600.81;5135583;28;20027;-73
2024/03/22 09:24:28;;;;;;;26.02;13.45;;;;;;;13.74;86.66;100594.22;5135602;28;20022;-76
2024/03/22 09:26:59;;;;;;;25.40;11.88;;;;;;;13.88;86.53;100593.56;5122973;28;20111;-75
2024/03/22 09:29:29;;;;;;;28.70;12.52;;;;;;;13.99;85.46;100594.75;5129914;28;20399;-76
2024/03/22 09:31:59;;;;;;;25.23;12.55;;;;;;;13.95;85.88;100587.09;5123133;28;20082;-75
2024/03/22 09:34:30;;;;;;;23.88;12.02;;;;;;;13.83;85.47;100577.16;5128278;28;20022;-75
2024/03/22 09:37:00;;;;;;;26.00;12.95;;;;;;;13.76;85.54;100575.78;5128048;28;20027;-73
2024/03/22 09:39:31;;;;;;;22.88;12.15;;;;;;;13.86;86.21;100571.75;5120193;28;20038;-75
2024/03/22 09:42:06;;;;;;;26.23;13.20;;;;;;;13.86;85.99;100575.25;5122311;28;20038;-74
2024/03/22 09:44:39;;;;;;;25.50;12.30;;;;;;;13.99;86.08;100565.84;5125085;28;20035;-75
2024/03/22 09:47:14;;;;;;;25.05;12.15;;;;;;;14.16;86.06;100570.28;5131702;28;20392;-75
2024/03/22 09:49:46;;;;;;;23.23;12.27;;;;;;;14.01;86.23;100565.75;5138181;28;20113;-74
2024/03/22 09:52:20;;;;;;;27.08;12.65;;;;;;;14.03;85.79;100563.91;5128541;28;20029;-74
2024/03/22 09:54:51;;;;;;;27.98;13.75;;;;;;;14.03;85.06;100563.91;5129600;28;20030;-73
2024/03/22 09:57:22;;;;;;;27.27;12.93;;;;;;;14.03;85.47;100559.50;5149204;28;20022;-75
2024/03/22 09:59:54;;;;;;;27.55;13.25;;;;;;;14.15;85.37;100545.75;5131602;28;20031;-74
2024/03/22 10:02:26;;;;;;;24.92;12.73;;;;;;;14.10;85.04;100552.16;5121605;28;20468;-76
2024/03/22 10:04:56;;;;;;;28.98;13.45;;;;;;;14.01;85.60;100539.47;5124651;28;20389;-76
2024/03/22 10:07:27;;;;;;;25.25;12.27;;;;;;;14.19;85.22;100533.31;5129963;28;20178;-76
2024/03/22 10:10:00;;;;;;;25.33;12.93;;;;;;;14.31;85.22;100533.56;5128355;28;20031;-76
2024/03/22 10:12:30;;;;;;;26.45;12.55;;;;;;;14.31;85.45;100536.19;5125318;28;20449;-76
2024/03/22 10:15:00;;;;;;;27.75;12.88;;;;;;;14.32;83.96;100535.28;5127660;28;20039;-75
2024/03/22 10:17:31;;;;;;;24.35;12.57;;;;;;;14.41;84.66;100526.06;5133726;28;20118;-76
2024/03/22 10:20:02;;;;;;;27.85;13.35;;;;;;;14.49;84.50;100519.47;5133463;28;20031;-76
2024/03/22 10:22:32;;;;;;;25.42;12.27;;;;;;;14.43;83.65;100522.41;5131770;28;20050;-77
2024/03/22 10:25:06;;;;;;;27.88;13.48;;;;;;;14.48;84.18;100509.00;5129509;28;20027;-75
2024/03/22 10:27:42;;;;;;;24.40;12.30;;;;;;;14.58;83.55;100516.34;5121935;28;20030;-75
2024/03/22 10:30:16;;;;;;;25.35;12.70;;;;;;;14.80;82.99;100511.63;5129821;28;20126;-76
2024/03/22 10:32:48;;;;;;;23.10;12.68;;;;;;;15.13;82.28;100504.53;5134506;28;20058;-75
2024/03/22 10:35:18;;;;;;;25.00;11.93;;;;;;;15.26;81.22;100505.56;5125592;28;20030;-77
2024/03/22 10:37:50;;;;;;;23.98;11.30;;;;;;;15.17;80.50;100501.66;5134184;28;20038;-75
2024/03/22 10:40:20;;;;;;;23.65;11.70;;;;;;;15.17;81.28;100499.03;5132525;28;20426;-76
2024/03/22 10:42:51;;;;;;;23.73;12.32;;;;;;;15.02;81.55;100497.22;5126951;28;20031;-75
2024/03/22 10:45:25;;;;;;;22.00;11.30;;;;;;;15.29;81.47;100494.88;5134948;28;20027;-76
2024/03/22 10:47:55;;;;;;;23.27;11.93;;;;;;;15.50;80.10;100494.53;5129686;28;20027;-73
2024/03/22 10:50:26;;;;;;;26.88;12.20;;;;;;;15.71;80.16;100495.09;5126290;28;20038;-76
2024/03/22 10:53:02;;;;;;;19.95;10.85;;;;;;;15.53;79.27;100477.72;5138358;28;20042;-74
2024/03/22 10:55:38;;;;;;;20.75;11.05;;;;;;;15.45;80.63;100486.03;5144611;28;20122;-76
2024/03/22 10:58:21;;;;;;;21.15;10.75;;;;;;;15.54;79.66;100482.88;5132268;28;20109;-75
2024/03/22 11:00:52;;;;;;;21.23;10.65;;;;;;;15.55;79.44;100484.56;5130190;28;20035;-75
2024/03/22 11:03:26;;;;;;;22.35;11.02;;;;;;;15.63;79.00;100474.44;5133720;28;20031;-76
2024/03/22 11:05:57;;;;;;;23.73;11.02;;;;;;;15.44;78.92;100472.94;5125573;28;20051;-75
2024/03/22 11:08:29;;;;;;;19.55;10.30;;;;;;;15.59;79.28;100466.81;5126625;28;20090;-76
2024/03/22 11:11:10;;;;;;;19.25;10.02;;;;;;;15.45;78.97;100462.34;5126998;28;20035;-75
2024/03/22 11:13:40;;;;;;;21.85;10.18;;;;;;;15.60;79.93;100455.31;5132774;28;20042;-76
2024/03/22 11:16:11;;;;;;;23.30;11.48;;;;;;;15.70;78.82;100443.34;5128801;28;20040;-75
2024/03/22 11:18:42;;;;;;;19.35;9.60;;;;;;;15.54;77.58;100448.63;5129927;28;20034;-75
2024/03/22 11:21:13;;;;;;;19.65;9.90;;;;;;;15.55;78.97;100445.06;5136474;28;20487;-75
2024/03/22 11:23:47;;;;;;;18.17;9.50;;;;;;;15.51;79.97;100447.97;5133675;28;20029;-75
2024/03/22 11:26:17;;;;;;;17.80;9.45;;;;;;;15.37;80.83;100446.09;5126819;28;20035;-75
2024/03/22 11:28:48;;;;;;;20.50;9.30;;;;;;;15.35;80.48;100442.72;5132290;28;20035;-76